Time;durP1;ratioP1;P1;durP2;ratioP2;P2;SDS_P1;SDS_P2;PMS_P1;PMS_P2;Temp;Humidity;BMP_temperature;BMP_pressure;BME280_temperature;BME280_humidity;BME280_pressure;Samples;Min_cycle;Max_cycle;Signal;HPM_P1;HPM_P2
2023/10/14 00:01:41;;;;;;;;;;;18.30;99.90;;;17.43;94.37;99299.97;6306153;22;20328;-80
2023/10/14 00:04:09;;;;;;;18.17;5.57;;;18.50;99.90;;;17.40;95.24;99278.97;6329923;22;19977;-81
2023/10/14 00:06:41;;;;;;;21.92;5.18;;;18.40;99.90;;;17.42;94.60;99280.50;6304575;22;20010;-81
2023/10/14 00:09:13;;;;;;;22.42;6.07;;;18.50;99.90;;;17.45;94.35;99282.03;6279486;22;20076;-81
2023/10/14 00:11:54;;;;;;;23.52;5.60;;;18.50;99.90;;;17.46;94.19;99258.94;6331322;22;20006;-79
2023/10/14 00:14:23;;;;;;;15.02;5.68;;;18.40;99.90;;;17.47;94.47;99268.56;6282025;22;20010;-79
2023/10/14 00:16:49;;;;;;;23.65;6.30;;;18.50;99.90;;;17.46;94.33;99264.25;6304793;22;20014;-80
2023/10/14 00:19:18;;;;;;;19.17;6.32;;;18.40;99.90;;;17.45;94.76;99259.91;6303754;22;20007;-81
2023/10/14 00:21:51;;;;;;;27.88;6.30;;;18.50;99.90;;;17.45;95.02;99254.56;6305160;22;20401;-81
2023/10/14 00:24:26;;;;;;;17.60;6.43;;;18.40;99.90;;;17.46;95.01;99251.78;6304622;22;20014;-81
2023/10/14 00:27:04;;;;;;;18.50;5.75;;;18.40;99.90;;;17.42;95.44;99243.25;6279599;22;20324;-80
2023/10/14 00:29:29;;;;;;;22.13;5.97;;;18.40;99.90;;;17.42;95.54;99251.22;6304129;22;20014;-80
2023/10/14 00:32:03;;;;;;;16.52;6.60;;;18.40;99.90;;;17.39;95.73;99235.59;6279178;22;19999;-80
2023/10/14 00:34:29;;;;;;;20.92;6.90;;;18.40;99.90;;;17.40;96.30;99234.56;6305158;22;20003;-80
2023/10/14 00:36:56;;;;;;;15.70;5.65;;;18.40;99.90;;;17.36;96.86;99233.19;6303639;22;20010;-80
2023/10/14 00:39:32;;;;;;;40.15;5.97;;;18.40;99.90;;;17.34;97.19;99232.56;6303447;22;20069;-80
2023/10/14 00:41:58;;;;;;;18.65;6.60;;;18.30;99.90;;;17.34;97.65;99221.03;6280620;22;20014;-81
2023/10/14 00:44:25;;;;;;;23.13;6.22;;;18.30;99.90;;;17.27;98.12;99223.47;6278720;22;20462;-80
2023/10/14 00:46:57;;;;;;;15.40;6.65;;;18.30;99.90;;;17.25;98.36;99225.44;6252678;22;20371;-79
2023/10/14 00:49:36;;;;;;;16.55;6.53;;;18.30;99.90;;;17.26;98.84;99221.81;6269758;22;20453;-81
2023/10/14 00:52:10;;;;;;;20.27;6.85;;;18.30;99.90;;;17.25;99.06;99212.16;6286529;22;20014;-81
2023/10/14 00:54:58;;;;;;;20.83;6.65;;;18.20;99.90;;;17.22;98.96;99201.84;6284601;22;20508;-81
2023/10/14 00:57:27;;;;;;;19.83;6.35;;;18.20;99.90;;;17.22;99.17;99212.47;6313042;22;20342;-79
2023/10/14 00:59:59;;;;;;;12.68;6.47;;;18.20;99.90;;;17.24;99.69;99193.72;6283998;22;20009;-81
2023/10/14 01:02:32;;;;;;;20.02;6.57;;;18.20;99.90;;;17.19;100.00;99186.16;6284844;22;20020;-80
2023/10/14 01:05:09;;;;;;;15.15;6.15;;;18.20;99.90;;;17.19;100.00;99180.84;6284535;22;20212;-81
2023/10/14 01:07:38;;;;;;;15.20;6.50;;;18.20;99.90;;;17.17;100.00;99180.16;6284431;22;20369;-81
2023/10/14 01:10:12;;;;;;;16.23;7.03;;;18.20;99.90;;;17.16;100.00;99173.16;6284339;22;20010;-81
2023/10/14 01:12:41;;;;;;;15.75;6.57;;;18.20;99.90;;;17.18;100.00;99152.59;6309987;22;20031;-81
2023/10/14 01:15:20;;;;;;;19.75;7.10;;;18.20;99.90;;;17.19;100.00;99144.47;6285893;22;20007;-81
2023/10/14 01:17:51;;;;;;;23.50;7.22;;;18.10;99.90;;;17.19;100.00;99148.91;6285946;22;20086;-81
2023/10/14 01:22:55;;;;;;;18.77;6.45;;;18.10;99.90;;;17.11;100.00;99119.63;6309215;22;20042;-81
2023/10/14 01:25:24;;;;;;;17.15;6.57;;;18.10;99.90;;;17.16;100.00;99119.97;6310888;22;20090;-80
2023/10/14 01:27:50;;;;;;;14.73;7.55;;;18.20;99.90;;;17.22;100.00;99111.41;6284004;22;20003;-80
2023/10/14 01:31:06;;;;;;;18.63;8.15;;;18.20;99.90;;;17.24;100.00;99090.81;6282834;22;20014;-82
2023/10/14 01:33:16;;;;;;;19.85;7.47;;;18.20;99.90;;;17.25;100.00;99076.50;6298249;22;20653;-81
2023/10/14 01:35:45;;;;;;;16.92;7.22;;;18.20;99.90;;;17.25;100.00;99081.00;6285187;22;20009;-81
2023/10/14 01:38:11;;;;;;;20.55;7.47;;;18.20;99.90;;;17.22;100.00;99071.50;6281564;22;20011;-80
2023/10/14 01:40:40;;;;;;;18.00;7.88;;;18.20;99.90;;;17.22;100.00;99063.53;6278518;22;20003;-81
2023/10/14 01:43:06;;;;;;;19.10;7.25;;;18.10;99.90;;;17.14;100.00;99055.47;6256215;22;20086;-82
2023/10/14 01:45:40;;;;;;;16.73;6.65;;;18.10;99.90;;;17.13;100.00;99053.81;6279978;22;20049;-80
2023/10/14 01:48:12;;;;;;;25.23;8.20;;;18.10;99.90;;;17.08;100.00;99048.94;6306476;22;20110;-81
2023/10/14 01:50:46;;;;;;;12.25;6.78;;;18.00;99.90;;;17.06;100.00;99044.75;6280293;22;19999;-79
2023/10/14 01:53:24;;;;;;;17.80;7.03;;;18.00;99.90;;;17.08;100.00;99026.84;6254239;22;20147;-80
2023/10/14 01:55:53;;;;;;;15.35;6.78;;;18.00;99.90;;;17.05;100.00;99043.94;6281633;22;20011;-80
2023/10/14 01:58:29;;;;;;;16.13;7.03;;;18.00;99.90;;;17.01;100.00;99031.94;6255345;22;20011;-81
2023/10/14 02:01:19;;;;;;;15.75;6.88;;;18.00;99.90;;;16.96;100.00;99027.09;6307514;22;20012;-81
2023/10/14 02:03:47;;;;;;;13.05;6.78;;;18.00;99.90;;;16.99;100.00;99029.41;6305042;22;20003;-81
2023/10/14 02:06:18;;;;;;;17.30;5.55;;;18.00;99.90;;;16.96;100.00;99019.09;6279645;22;20003;-78
2023/10/14 02:08:51;;;;;;;17.52;5.50;;;18.00;99.90;;;17.03;100.00;99037.94;6306753;22;20101;-80
2023/10/14 02:11:20;;;;;;;14.52;5.85;;;18.00;99.90;;;17.09;100.00;99021.38;6330558;22;20336;-79
2023/10/14 02:13:51;;;;;;;11.32;5.18;;;18.10;99.90;;;17.16;99.41;99019.75;6331476;22;20003;-81
2023/10/14 02:16:24;;;;;;;15.10;6.63;;;18.20;99.90;;;17.23;99.02;99004.00;6305117;22;20455;-81
2023/10/14 02:18:49;;;;;;;13.40;5.63;;;18.20;99.90;;;17.25;98.39;99010.00;6332048;22;20007;-79
2023/10/14 02:21:20;;;;;;;21.35;6.30;;;18.20;99.90;;;17.29;97.76;99019.34;6331782;22;20431;-81
2023/10/14 02:23:49;;;;;;;16.58;5.50;;;18.30;99.90;;;17.30;97.64;99012.19;6331412;22;20427;-81
2023/10/14 02:26:25;;;;;;;14.43;5.53;;;18.30;99.90;;;17.34;96.87;99024.19;6330418;22;20482;-79
2023/10/14 02:28:52;;;;;;;19.13;6.18;;;18.30;99.90;;;17.38;96.56;99025.56;6330182;22;20004;-79
2023/10/14 02:31:35;;;;;;;12.25;5.60;;;18.40;99.90;;;17.45;96.07;99026.63;6330819;22;20082;-81
2023/10/14 02:34:08;;;;;;;16.45;5.40;;;18.40;99.90;;;17.49;95.07;99019.13;6331417;22;20010;-80
2023/10/14 02:36:48;;;;;;;13.63;6.55;;;18.40;99.90;;;17.51;94.84;99030.44;6330786;22;20009;-81
2023/10/14 02:39:14;;;;;;;19.20;6.45;;;18.30;99.90;;;17.51;94.70;99025.13;6331869;22;20010;-81
2023/10/14 02:41:57;;;;;;;14.93;6.13;;;18.50;99.90;;;17.52;94.68;99021.50;6304968;22;20045;-80
2023/10/14 02:44:32;;;;;;;14.68;6.53;;;18.50;99.90;;;17.50;94.60;99028.78;6328533;22;20516;-79
2023/10/14 02:47:05;;;;;;;17.00;5.97;;;18.50;99.90;;;17.48;94.28;99014.81;6331287;22;20034;-80
2023/10/14 02:49:37;;;;;;;11.35;5.97;;;18.40;99.90;;;17.46;95.21;99020.28;6331299;22;20007;-80
2023/10/14 02:52:14;;;;;;;20.10;7.78;;;18.40;99.90;;;17.42;97.74;99011.78;6331873;22;20080;-80
2023/10/14 02:54:54;;;;;;;17.65;7.20;;;18.30;99.90;;;17.32;99.47;99021.72;6331565;22;19999;-80
2023/10/14 02:59:49;;;;;;;22.45;6.95;;;18.20;99.90;;;17.21;100.00;99037.91;6307550;22;19906;-81
2023/10/14 03:02:29;;;;;;;4.53;1.95;;;17.90;99.90;;;15.91;95.89;99083.38;6335690;22;20021;-81
2023/10/14 03:07:36;;;;;;;11.35;1.30;;;16.70;99.90;;;14.77;92.56;99120.31;6330367;22;20011;-79
2023/10/14 03:10:13;;;;;;;8.57;0.98;;;16.30;99.90;;;14.32;92.58;99131.34;6331096;22;20003;-81
2023/10/14 03:12:39;;;;;;;5.97;0.85;;;15.80;99.90;;;14.02;93.15;99133.03;6329733;22;20027;-81
2023/10/14 03:15:19;;;;;;;9.05;0.80;;;15.40;99.90;;;13.70;94.92;99147.22;6330981;22;20010;-80
2023/10/14 03:17:58;;;;;;;4.45;1.00;;;15.00;99.90;;;13.35;97.00;99131.69;6329513;22;20328;-80
2023/10/14 03:23:22;;;;;;;5.10;1.05;;;14.50;99.90;;;13.10;100.00;99136.31;6333850;22;20041;-81
2023/10/14 03:26:14;;;;;;;7.80;1.25;;;14.30;99.90;;;12.89;100.00;99146.84;6306198;22;20339;-81
2023/10/14 03:28:44;;;;;;;6.55;1.35;;;14.20;99.90;;;12.74;100.00;99142.78;6326955;22;20086;-80
2023/10/14 03:31:17;;;;;;;7.10;1.00;;;14.00;99.90;;;12.79;100.00;99142.44;6331933;22;20381;-81
2023/10/14 03:33:43;;;;;;;6.85;1.50;;;14.00;99.90;;;12.70;100.00;99152.78;6331011;22;20013;-80
2023/10/14 03:36:17;;;;;;;5.32;1.20;;;13.90;99.90;;;12.66;100.00;99145.22;6304678;22;20042;-81
2023/10/14 03:38:55;;;;;;;7.85;1.30;;;13.90;99.90;;;12.62;100.00;99164.91;6305176;22;20022;-80
2023/10/14 03:41:21;;;;;;;4.40;1.20;;;13.90;99.90;;;12.65;100.00;99170.78;6305002;22;20083;-80
2023/10/14 03:44:05;;;;;;;6.70;1.25;;;13.80;99.90;;;12.62;100.00;99170.19;6329764;22;20351;-79
2023/10/14 03:46:32;;;;;;;9.52;1.08;;;13.80;99.90;;;12.60;100.00;99175.59;6329985;22;20431;-80
2023/10/14 03:49:11;;;;;;;10.45;1.10;;;13.80;99.90;;;12.62;100.00;99180.75;6329671;22;20455;-81
2023/10/14 03:51:44;;;;;;;11.32;1.13;;;13.80;99.90;;;12.68;100.00;99206.69;6328070;22;19999;-80
2023/10/14 03:54:12;;;;;;;8.98;1.20;;;13.80;99.90;;;12.77;100.00;99205.09;6303913;22;20014;-80
2023/10/14 03:56:45;;;;;;;8.32;1.17;;;13.90;99.90;;;12.83;100.00;99196.66;6331213;22;20007;-80
2023/10/14 03:59:26;;;;;;;9.23;1.40;;;13.90;99.90;;;12.89;100.00;99210.25;6328579;22;20137;-80
2023/10/14 04:02:07;;;;;;;9.90;1.63;;;13.90;99.90;;;12.83;100.00;99216.03;6329489;22;20035;-80
2023/10/14 04:04:32;;;;;;;3.97;1.05;;;13.90;99.90;;;12.85;100.00;99213.22;6329976;22;20431;-79
2023/10/14 04:09:39;;;;;;;12.10;1.30;;;13.90;99.90;;;12.86;100.00;99223.69;6330740;22;20011;-82
2023/10/14 04:12:17;;;;;;;12.25;1.50;;;13.90;99.90;;;12.89;100.00;99226.09;6304474;22;20013;-81
2023/10/14 04:14:52;;;;;;;9.60;1.40;;;13.90;99.90;;;12.89;100.00;99226.09;6328229;22;20007;-81
2023/10/14 04:17:22;;;;;;;16.80;1.85;;;14.00;99.90;;;12.91;100.00;99232.09;6331112;22;20013;-80
2023/10/14 04:19:53;;;;;;;9.25;1.20;;;13.90;99.90;;;12.91;100.00;99250.59;6331272;22;20003;-81
2023/10/14 04:22:30;;;;;;;9.00;1.13;;;14.00;99.90;;;12.91;100.00;99250.59;6304180;22;20003;-80
2023/10/14 04:25:42;;;;;;;8.65;1.15;;;13.90;99.90;;;12.88;100.00;99261.38;6330082;22;20589;-80
2023/10/14 04:30:32;;;;;;;7.20;1.02;;;13.90;99.90;;;12.83;100.00;99267.97;6330609;22;20057;-81
2023/10/14 04:33:17;;;;;;;8.82;1.60;;;13.90;99.90;;;12.82;100.00;99285.63;6304168;22;20007;-81
2023/10/14 04:35:59;;;;;;;13.93;1.33;;;13.90;99.90;;;12.81;100.00;99291.06;6304511;22;20011;-80
2023/10/14 04:38:28;;;;;;;10.57;1.48;;;13.90;99.90;;;12.81;100.00;99289.25;6326972;22;20007;-82
2023/10/14 04:40:58;;;;;;;10.85;1.27;;;13.90;99.90;;;12.81;100.00;99276.06;6304523;22;20007;-80
2023/10/14 04:48:38;;;;;;;7.47;1.60;;;13.90;99.90;;;12.76;100.00;99323.09;6306663;22;20061;-81
2023/10/14 04:51:13;;;;;;;13.27;1.33;;;13.90;99.90;;;12.77;100.00;99326.59;6330141;22;20034;-81
2023/10/14 04:53:51;;;;;;;5.80;1.30;;;13.80;99.90;;;12.75;100.00;99312.69;6328453;22;20021;-81
2023/10/14 04:56:22;;;;;;;8.23;1.42;;;13.80;99.90;;;12.75;100.00;99300.31;6330792;22;20462;-81
2023/10/14 04:58:52;;;;;;;10.20;1.08;;;13.80;99.90;;;12.74;100.00;99306.53;6329597;22;20406;-81
2023/10/14 05:01:24;;;;;;;6.75;1.10;;;13.80;99.90;;;12.74;100.00;99282.75;6330767;22;20010;-81
2023/10/14 05:03:59;;;;;;;9.30;1.65;;;13.90;99.90;;;12.76;100.00;99301.97;6303551;22;20320;-80
2023/10/14 05:06:40;;;;;;;10.97;1.43;;;13.80;99.90;;;12.78;100.00;99305.31;6329258;22;20006;-80
2023/10/14 05:09:25;;;;;;;9.70;1.25;;;13.80;99.90;;;12.80;100.00;99308.69;6326284;22;20003;-81
2023/10/14 05:11:51;;;;;;;8.32;1.10;;;13.90;99.90;;;12.80;100.00;99321.06;6330031;22;20447;-80
2023/10/14 05:14:39;;;;;;;9.98;1.20;;;13.90;99.90;;;12.84;100.00;99319.88;6303783;22;20023;-79
2023/10/14 05:19:41;;;;;;;12.07;1.40;;;13.90;99.90;;;12.85;100.00;99335.59;6332692;22;20011;-80
2023/10/14 05:24:58;;;;;;;3.80;0.73;;;13.90;99.90;;;12.85;100.00;99353.22;6333672;22;20059;-79
2023/10/14 05:27:46;;;;;;;9.02;1.10;;;13.90;99.90;;;12.64;100.00;99400.66;6330139;22;20014;-81
2023/10/14 05:30:21;;;;;;;3.00;0.65;;;13.80;99.90;;;12.41;100.00;99405.03;6304933;22;20007;-81
2023/10/14 05:32:51;;;;;;;2.83;0.60;;;13.60;99.90;;;12.15;100.00;99412.25;6328902;22;20003;-80
2023/10/14 05:35:17;;;;;;;8.77;1.00;;;13.60;99.90;;;12.12;100.00;99431.78;6303371;22;20237;-81
2023/10/14 05:37:43;;;;;;;4.90;0.93;;;13.50;99.90;;;12.05;100.00;99436.69;6330348;22;20086;-81
2023/10/14 05:40:16;;;;;;;13.52;1.20;;;13.40;99.90;;;12.01;100.00;99445.78;6330774;22;20004;-81
2023/10/14 05:42:45;;;;;;;6.80;0.80;;;13.30;99.90;;;11.94;100.00;99451.59;6330174;22;20002;-80
2023/10/14 05:45:11;;;;;;;6.53;1.08;;;13.20;99.90;;;11.92;100.00;99440.31;6329700;22;20000;-81
2023/10/14 05:47:50;;;;;;;7.93;0.90;;;13.20;99.90;;;11.90;100.00;99433.38;6330566;22;20010;-81
2023/10/14 05:50:16;;;;;;;7.47;0.90;;;13.10;99.90;;;11.79;100.00;99440.31;6304302;22;20018;-82
2023/10/14 05:52:48;;;;;;;10.25;1.20;;;13.10;99.90;;;11.79;100.00;99451.72;6330409;22;20338;-80
2023/10/14 05:55:21;;;;;;;9.57;1.00;;;13.10;99.90;;;11.81;100.00;99448.97;6304161;22;20004;-79
2023/10/14 05:57:53;;;;;;;5.00;0.70;;;13.10;99.90;;;11.88;100.00;99460.81;6303769;22;20504;-81
2023/10/14 06:00:21;;;;;;;15.23;1.45;;;13.00;99.90;;;11.85;100.00;99466.25;6329716;22;20082;-80
2023/10/14 06:02:49;;;;;;;10.57;0.90;;;13.00;99.90;;;11.90;100.00;99466.81;6329992;22;20031;-80
2023/10/14 06:05:26;;;;;;;13.52;1.38;;;13.10;99.90;;;11.93;100.00;99486.84;6329185;22;20412;-80
2023/10/14 06:10:47;;;;;;;7.88;1.15;;;13.10;99.90;;;11.93;100.00;99492.97;6309316;22;20064;-80
2023/10/14 06:16:13;;;;;;;5.82;1.13;;;13.10;99.90;;;12.02;100.00;99505.47;6272431;22;20121;-80
2023/10/14 06:18:40;;;;;;;10.63;1.23;;;13.10;99.90;;;11.95;100.00;99506.88;6270007;22;20095;-81
2023/10/14 06:21:08;;;;;;;5.70;1.30;;;13.10;99.90;;;11.95;100.00;99506.03;6245347;22;20003;-81
2023/10/14 06:23:34;;;;;;;10.80;2.17;;;13.10;99.90;;;11.94;100.00;99515.72;6270310;22;20018;-79
2023/10/14 06:26:00;;;;;;;13.23;1.60;;;13.10;99.90;;;11.86;100.00;99520.72;6244912;22;20012;-81
2023/10/14 06:28:32;;;;;;;12.60;1.65;;;13.10;99.90;;;11.79;100.00;99532.63;6272631;22;20008;-81
2023/10/14 06:31:00;;;;;;;14.55;1.75;;;13.00;99.90;;;11.78;100.00;99544.97;6272738;22;20004;-81
2023/10/14 06:33:27;;;;;;;16.50;1.90;;;13.00;99.90;;;11.78;100.00;99554.69;6271905;22;20578;-81
2023/10/14 06:35:53;;;;;;;14.52;1.70;;;13.00;99.90;;;11.77;100.00;99568.81;6272193;22;20090;-78
2023/10/14 06:38:29;;;;;;;12.27;1.75;;;13.00;99.90;;;11.75;100.00;99575.97;6246575;22;20031;-81
2023/10/14 06:41:01;;;;;;;18.45;1.67;;;12.90;99.90;;;11.70;100.00;99584.22;6272508;22;20018;-81
2023/10/14 06:43:33;;;;;;;11.23;1.83;;;12.90;99.90;;;11.72;100.00;99589.38;6273244;22;20004;-81
2023/10/14 06:45:59;;;;;;;13.55;1.65;;;12.90;99.90;;;11.67;100.00;99593.19;6272391;22;20004;-81
2023/10/14 06:48:25;;;;;;;20.83;2.40;;;12.80;99.90;;;11.72;100.00;99602.56;6246488;22;20011;-80
2023/10/14 06:50:59;;;;;;;14.60;1.88;;;12.80;99.90;;;11.70;100.00;99598.25;6272792;22;20471;-81
2023/10/14 06:53:28;;;;;;;12.82;1.63;;;12.80;99.90;;;11.76;100.00;99609.31;6308501;22;20490;-81
2023/10/14 06:56:04;;;;;;;10.00;1.92;;;12.80;99.90;;;11.78;100.00;99617.97;6331470;22;20385;-80
2023/10/14 06:58:32;;;;;;;;;;;12.90;99.90;;;11.85;100.00;99621.88;6304693;22;20450;-81
2023/10/14 07:01:05;;;;;;;13.68;1.52;;;12.90;99.90;;;11.88;100.00;99629.63;6280018;22;19922;-81
2023/10/14 07:03:33;;;;;;;16.55;1.95;;;12.90;99.90;;;11.92;100.00;99640.78;6330614;22;20623;-80
2023/10/14 07:05:59;;;;;;;7.70;1.42;;;13.00;99.90;;;12.00;100.00;99647.22;6331239;22;20078;-80
2023/10/14 07:08:31;;;;;;;23.20;2.20;;;13.10;99.90;;;12.08;100.00;99651.97;6330154;22;20003;-79
2023/10/14 07:11:00;;;;;;;16.80;2.20;;;13.10;99.90;;;12.13;100.00;99662.19;6330071;22;20504;-81
2023/10/14 07:13:27;;;;;;;16.83;1.67;;;13.20;99.90;;;12.23;100.00;99672.00;6331407;22;20004;-81
2023/10/14 07:15:53;;;;;;;15.15;1.65;;;13.30;99.90;;;12.31;100.00;99679.38;6305026;22;20359;-80
2023/10/14 07:18:28;;;;;;;19.55;2.10;;;13.30;99.90;;;12.39;100.00;99676.19;6331009;22;20011;-80
2023/10/14 07:21:22;;;;;;;17.23;1.98;;;13.40;99.90;;;12.41;100.00;99683.03;6330397;22;20324;-83
2023/10/14 07:23:48;;;;;;;9.38;1.33;;;13.40;99.90;;;12.40;100.00;99691.94;6306224;22;20015;-81
2023/10/14 07:26:14;;;;;;;13.23;1.40;;;13.50;99.90;;;12.40;100.00;99696.38;6279571;22;20505;-86
2023/10/14 07:28:53;;;;;;;15.85;1.40;;;13.50;99.90;;;12.41;100.00;99703.31;6279308;22;20026;-81
2023/10/14 07:31:31;;;;;;;18.15;1.92;;;13.50;99.90;;;12.45;100.00;99703.00;6283206;22;20011;-80
2023/10/14 07:34:03;;;;;;;11.10;2.08;;;13.50;99.90;;;12.53;100.00;99715.66;6278175;22;20034;-82
2023/10/14 07:36:31;;;;;;;15.27;2.10;;;13.60;99.90;;;12.61;100.00;99723.03;6278620;22;20010;-82
2023/10/14 07:39:27;;;;;;;9.57;1.80;;;13.70;99.90;;;12.68;100.00;99724.31;6251354;22;20011;-82
2023/10/14 07:41:53;;;;;;;11.88;1.73;;;13.80;99.90;;;12.77;100.00;99725.44;6283753;22;20018;-83
2023/10/14 07:44:20;;;;;;;15.25;1.88;;;13.80;99.90;;;12.80;99.21;99723.41;6280043;22;20022;-81
2023/10/14 07:46:49;;;;;;;10.35;1.50;;;13.90;99.90;;;12.96;98.67;99738.16;6279174;22;20004;-83
2023/10/14 07:49:24;;;;;;;12.60;2.00;;;14.00;99.90;;;12.99;98.30;99738.78;6280689;22;20015;-83
2023/10/14 07:51:54;;;;;;;14.80;1.90;;;14.00;99.90;;;13.07;96.64;99751.44;6280957;22;20015;-82
2023/10/14 07:54:29;;;;;;;14.23;1.90;;;14.10;99.90;;;13.08;95.68;99742.56;6280472;22;20026;-82
2023/10/14 07:56:55;;;;;;;13.85;2.00;;;14.10;99.90;;;13.12;95.39;99754.59;6282656;22;20003;-81
2023/10/14 07:59:21;;;;;;;18.10;2.50;;;14.20;99.90;;;13.18;95.17;99754.16;6284048;22;20022;-81
2023/10/14 08:01:59;;;;;;;14.43;2.38;;;14.20;99.90;;;13.21;94.32;99759.19;6283642;22;20451;-82
2023/10/14 08:04:28;;;;;;;20.70;2.20;;;14.30;99.90;;;13.29;93.90;99762.16;6309610;22;20011;-81
2023/10/14 08:06:57;;;;;;;16.40;2.05;;;14.30;99.90;;;13.31;93.08;99773.47;6335415;22;20117;-82
2023/10/14 08:09:28;;;;;;;12.73;2.53;;;14.40;99.90;;;13.39;93.10;99783.50;6335246;22;20030;-81
2023/10/14 08:11:59;;;;;;;19.52;2.65;;;14.40;99.90;;;13.48;93.13;99792.56;6309657;22;20034;-81
2023/10/14 08:14:30;;;;;;;24.23;2.28;;;14.50;99.90;;;13.60;93.75;99791.63;6334830;22;20003;-83
2023/10/14 08:17:11;;;;;;;16.58;2.35;;;14.60;99.90;;;13.67;93.33;99806.13;6309319;22;20086;-83
2023/10/14 08:19:47;;;;;;;17.98;2.30;;;14.70;99.90;;;13.74;91.51;99802.03;6337848;22;20093;-82
2023/10/14 08:22:14;;;;;;;22.33;3.15;;;14.80;99.90;;;13.84;90.62;99809.28;6335349;22;20066;-82
2023/10/14 08:24:39;;;;;;;15.23;2.25;;;14.80;99.90;;;13.88;89.96;99808.94;6339905;22;20436;-82
2023/10/14 08:27:05;;;;;;;15.13;2.10;;;15.00;99.90;;;13.99;90.54;99810.78;6313865;22;20007;-82
2023/10/14 08:29:41;;;;;;;21.73;2.55;;;15.00;99.90;;;14.05;89.04;99817.44;6341821;22;20014;-82
2023/10/14 08:32:07;;;;;;;15.98;2.35;;;15.10;99.90;;;14.20;87.97;99832.16;6341131;22;20347;-82
2023/10/14 08:34:32;;;;;;;15.23;2.22;;;15.20;99.90;;;14.27;86.47;99829.88;6342429;22;19999;-81
2023/10/14 08:37:07;;;;;;;17.30;1.98;;;15.30;99.90;;;14.30;85.67;99827.84;6316183;22;20005;-82
2023/10/14 08:39:33;;;;;;;14.55;2.38;;;15.40;99.90;;;14.39;84.76;99842.19;6317594;22;20003;-80
2023/10/14 08:44:51;;;;;;;17.30;2.50;;;15.40;99.90;;;14.40;83.10;99843.84;6224197;23;20019;-81
2023/10/14 08:47:22;;;;;;;11.48;2.45;;;15.50;99.90;;;14.45;83.72;99847.03;6225185;23;20041;-82
2023/10/14 08:49:57;;;;;;;12.85;2.03;;;15.50;99.90;;;14.50;82.61;99852.78;6227822;22;20005;-81
2023/10/14 08:52:26;;;;;;;16.80;2.90;;;15.50;99.90;;;14.53;82.95;99846.41;6227980;23;20005;-82
2023/10/14 08:55:01;;;;;;;9.13;1.83;;;15.60;99.90;;;14.61;82.73;99849.34;6203431;23;20035;-81
2023/10/14 08:57:39;;;;;;;18.05;2.83;;;15.60;99.90;;;14.61;81.66;99867.06;6223081;23;20012;-80
2023/10/14 09:00:12;;;;;;;15.30;2.63;;;15.80;99.90;;;14.79;82.02;99860.31;6208747;23;20044;-80
2023/10/14 09:02:41;;;;;;;11.60;2.08;;;15.80;99.90;;;14.84;80.88;99865.25;6210486;23;20040;-80
2023/10/14 09:05:11;;;;;;;20.70;2.45;;;15.90;99.90;;;14.89;80.64;99874.53;6209281;23;20019;-80
2023/10/14 09:07:43;;;;;;;19.65;2.45;;;15.90;99.90;;;14.94;78.26;99880.31;6209883;22;20020;-81
2023/10/14 09:10:09;;;;;;;10.13;2.20;;;15.90;99.90;;;14.83;77.79;99887.44;6208597;23;20087;-80
2023/10/14 09:12:40;;;;;;;16.33;2.10;;;15.80;99.90;;;14.74;79.11;99891.63;6184636;23;20047;-80
2023/10/14 09:15:09;;;;;;;14.65;2.03;;;15.80;99.90;;;14.81;79.51;99894.66;6208824;23;20016;-81
2023/10/14 09:17:38;;;;;;;15.52;1.98;;;15.90;99.90;;;14.84;80.76;99899.72;6209694;22;20000;-80
2023/10/14 09:20:09;;;;;;;15.40;3.08;;;15.90;99.90;;;14.90;81.01;99905.41;6210136;23;20009;-80
2023/10/14 09:22:40;;;;;;;15.43;2.10;;;16.00;99.90;;;15.05;79.69;99911.28;6301165;22;20003;-81
2023/10/14 09:25:06;;;;;;;16.63;2.53;;;16.00;99.90;;;14.98;77.80;99916.22;6328683;22;20003;-79
2023/10/14 09:27:32;;;;;;;19.52;2.53;;;15.90;99.90;;;14.83;77.21;99909.47;6341175;22;20072;-79
2023/10/14 09:30:03;;;;;;;15.65;2.17;;;16.00;99.90;;;14.83;79.19;99922.72;6344493;22;20055;-81
2023/10/14 09:32:32;;;;;;;14.45;1.60;;;15.90;99.90;;;14.89;77.80;99930.22;6345469;22;20010;-81
2023/10/14 09:34:59;;;;;;;13.02;2.25;;;16.00;99.90;;;14.93;77.04;99926.34;6337509;22;20046;-80
2023/10/14 09:37:26;;;;;;;18.88;2.50;;;;;;;14.93;76.51;99941.44;6313158;22;20470;-81
2023/10/14 09:40:08;;;;;;;13.75;1.98;;;16.00;99.90;;;14.99;77.96;99940.97;6338132;22;20011;-81
2023/10/14 09:42:45;;;;;;;15.05;2.22;;;16.00;99.90;;;14.88;78.10;99944.44;6338729;22;20086;-80
2023/10/14 09:45:12;;;;;;;14.60;1.98;;;16.00;99.90;;;14.96;77.16;99949.97;6337906;22;20003;-80
2023/10/14 09:47:47;;;;;;;16.98;2.90;;;16.00;99.90;;;15.00;76.06;99957.69;6312600;22;20676;-82
2023/10/14 09:50:17;;;;;;;16.92;2.55;;;16.10;99.90;;;15.06;76.36;99957.22;6338168;22;20073;-79
2023/10/14 09:52:57;;;;;;;17.13;2.10;;;16.10;99.90;;;15.03;75.26;99963.63;6336786;22;20036;-81
2023/10/14 09:55:31;;;;;;;23.55;2.67;;;16.10;99.90;;;15.01;74.97;99975.28;6340138;22;20003;-80
2023/10/14 09:58:09;;;;;;;19.48;2.40;;;16.10;99.90;;;15.12;75.17;99976.16;6338485;22;20090;-82
2023/10/14 10:00:40;;;;;;;11.40;2.53;;;16.10;99.90;;;15.08;73.79;99980.00;6338294;22;20022;-82
2023/10/14 10:03:12;;;;;;;15.98;1.90;;;16.10;99.90;;;14.97;72.13;99985.28;6316982;22;20032;-82
2023/10/14 10:05:51;;;;;;;18.02;2.15;;;16.10;99.90;;;15.08;74.01;99979.16;6338642;22;20038;-80
2023/10/14 10:08:41;;;;;;;17.65;2.42;;;16.10;99.90;;;15.04;73.07;99978.53;6335052;22;20018;-80
2023/10/14 10:11:23;;;;;;;17.25;2.15;;;16.00;99.90;;;14.89;72.94;99991.16;6340908;22;20093;-82
2023/10/14 10:13:53;;;;;;;15.25;2.10;;;16.00;99.90;;;14.98;72.95;100000.22;6307632;22;20408;-81
2023/10/14 10:16:33;;;;;;;12.98;1.95;;;16.10;99.90;;;15.08;73.61;100006.50;6332203;22;20015;-83
2023/10/14 10:19:05;;;;;;;16.65;2.60;;;16.10;99.90;;;15.00;72.53;100018.66;6331960;22;20352;-81
2023/10/14 10:21:43;;;;;;;14.30;2.08;;;16.10;99.90;;;15.07;71.61;100022.53;6333217;22;20008;-81
2023/10/14 10:24:34;;;;;;;15.68;2.42;;;16.10;99.90;;;15.08;73.29;100021.59;6331242;22;20007;-82
2023/10/14 10:27:03;;;;;;;15.70;2.50;;;16.20;99.90;;;15.21;74.45;100024.97;6330818;22;20045;-82
2023/10/14 10:30:00;;;;;;;14.93;2.33;;;16.10;99.90;;;14.83;71.97;100041.16;6308136;22;20482;-83
2023/10/14 10:32:33;;;;;;;12.13;1.65;;;15.90;99.90;;;14.64;73.85;100033.72;6301834;22;20003;-83
2023/10/14 10:35:13;;;;;;;13.18;1.83;;;15.70;99.90;;;14.47;76.17;100022.56;6329947;22;20059;-82
2023/10/14 10:37:55;;;;;;;15.60;2.38;;;15.60;99.90;;;14.29;76.45;100019.44;6308351;22;20056;-82
2023/10/14 10:40:32;;;;;;;13.18;2.03;;;15.50;99.90;;;14.26;76.50;100019.69;6308954;22;20087;-82
2023/10/14 10:43:11;;;;;;;17.88;2.75;;;15.40;99.90;;;14.27;76.51;100015.22;6305269;22;20003;-82
2023/10/14 10:48:42;;;;;;;25.38;2.80;;;15.20;99.90;;;14.11;75.37;100047.28;6252613;22;20016;-81
2023/10/14 10:51:21;;;;;;;16.83;2.72;;;15.10;99.90;;;14.05;76.35;100045.06;6282902;22;20014;-83
2023/10/14 10:53:59;;;;;;;14.18;2.17;;;14.90;99.90;;;13.71;76.24;100037.75;6311909;22;19999;-82
2023/10/14 10:56:33;;;;;;;15.35;2.45;;;14.80;99.90;;;13.59;77.15;100029.81;6291254;22;20445;-82
2023/10/14 10:59:04;;;;;;;16.58;2.00;;;14.70;99.90;;;13.60;77.35;100034.16;6313265;22;20445;-83
2023/10/14 11:01:39;;;;;;;14.05;2.20;;;14.60;99.90;;;13.51;76.74;100033.84;6313368;22;20342;-82
2023/10/14 11:04:08;;;;;;;16.13;2.17;;;14.50;99.90;;;13.44;76.19;100044.97;6284047;22;20109;-82
2023/10/14 11:06:48;;;;;;;13.88;1.85;;;14.50;99.90;;;13.41;76.96;100045.16;6285656;22;20090;-82
2023/10/14 11:09:23;;;;;;;14.50;1.60;;;14.40;99.90;;;13.28;76.88;100038.09;6304952;22;20017;-82
2023/10/14 11:11:53;;;;;;;14.23;2.13;;;14.40;99.90;;;13.34;77.53;100047.38;6257179;22;20007;-83